| Date | Time | Temp. (oF) | Dew Point (oF) | Rel. Hum. (%) | Press. (in.) | Wind Dir. | Wind Speed (mph) | Hourly Rainfall (in.) |
|
|---|---|---|---|---|---|---|---|---|---|
| 1 | 09/17 | 00:00 | 66 | 62 | 88 | 30.02 | NNW | 0 | 0.00 |
| 2 | 09/16 | 23:00 | 68 | 62 | 83 | 30.02 | NNE | 1 | 0.00 |
| 3 | 09/16 | 22:00 | 70 | 63 | 80 | 30.02 | ENE | 1 | 0.00 |
| 4 | 09/16 | 21:00 | 73 | 63 | 73 | 29.99 | NE | 3 | 0.00 |
| 5 | 09/16 | 20:00 | 75 | 64 | 70 | 29.97 | NNE | 3 | 0.00 |
| 6 | 09/16 | 19:00 | 78 | 66 | 67 | 29.95 | NE | 7 | 0.00 |
| 7 | 09/16 | 18:00 | 80 | 66 | 64 | 29.94 | NNW | 5 | 0.00 |
| 8 | 09/16 | 17:00 | 84 | 64 | 52 | 29.93 | NW | 5 | 0.00 |
| 9 | 09/16 | 16:00 | 83 | 65 | 56 | 29.94 | WNW | 7 | 0.00 |
| 10 | 09/16 | 15:00 | 84 | 65 | 55 | 29.96 | W | 5 | 0.00 |
| 11 | 09/16 | 14:00 | 82 | 67 | 62 | 29.97 | NNW | 6 | 0.00 |
| 12 | 09/16 | 13:00 | 83 | 69 | 65 | 29.98 | NNW | 8 | 0.00 |
| 13 | 09/16 | 12:00 | 80 | 69 | 70 | 29.99 | W | 4 | 0.00 |
| 14 | 09/16 | 11:00 | 78 | 70 | 78 | 30.00 | NW | 5 | 0.00 |
| 15 | 09/16 | 10:00 | 75 | 70 | 87 | 30.01 | WSW | 5 | 0.00 |
| 16 | 09/16 | 09:00 | 71 | 69 | 95 | 30.01 | S | 2 | 0.00 |
| 17 | 09/16 | 08:00 | 70 | 68 | 96 | 30.00 | SSW | 1 | 0.00 |
| 18 | 09/16 | 07:00 | 71 | 69 | 95 | 30.00 | WSW | 0 | 0.00 |
| 19 | 09/16 | 06:00 | 71 | 69 | 94 | 29.98 | SSW | 2 | 0.00 |
| 20 | 09/16 | 05:00 | 72 | 70 | 95 | 29.98 | S | 4 | 0.00 |
| 21 | 09/16 | 04:00 | 72 | 71 | 98 | 29.98 | SSW | 4 | 0.00 |
| 22 | 09/16 | 03:00 | 72 | 71 | 99 | 29.98 | S | 4 | 0.00 |
| 23 | 09/16 | 02:00 | 72 | 71 | 99 | 30.00 | S | 5 | 0.00 |
| 24 | 09/16 | 01:00 | 72 | 71 | 97 | 30.01 | SSW | 4 | 0.00 |